sensor_id;sensor_type;location;lat;lon;timestamp;temperature;humidity
46508;DHT22;32223;53.654;10.014;2023-08-08T00:00:07;12.00;99.90
46508;DHT22;32223;53.654;10.014;2023-08-08T00:02:34;12.00;99.90
46508;DHT22;32223;53.654;10.014;2023-08-08T00:04:59;12.00;99.90
46508;DHT22;32223;53.654;10.014;2023-08-08T00:07:25;12.00;99.90
46508;DHT22;32223;53.654;10.014;2023-08-08T00:09:51;12.00;99.90
46508;DHT22;32223;53.654;10.014;2023-08-08T00:12:17;12.00;99.90
46508;DHT22;32223;53.654;10.014;2023-08-08T00:14:42;12.10;99.90
46508;DHT22;32223;53.654;10.014;2023-08-08T00:17:08;12.00;99.90
46508;DHT22;32223;53.654;10.014;2023-08-08T00:19:34;12.00;99.90
46508;DHT22;32223;53.654;10.014;2023-08-08T00:21:59;12.00;99.90
46508;DHT22;32223;53.654;10.014;2023-08-08T00:24:25;12.10;99.90
46508;DHT22;32223;53.654;10.014;2023-08-08T00:26:50;12.00;99.90
46508;DHT22;32223;53.654;10.014;2023-08-08T00:29:16;12.00;99.90
46508;DHT22;32223;53.654;10.014;2023-08-08T00:31:42;12.00;99.90
46508;DHT22;32223;53.654;10.014;2023-08-08T00:34:07;12.00;99.90
46508;DHT22;32223;53.654;10.014;2023-08-08T00:36:33;12.00;99.90
46508;DHT22;32223;53.654;10.014;2023-08-08T00:38:58;12.00;99.90
46508;DHT22;32223;53.654;10.014;2023-08-08T00:41:25;12.00;99.90
46508;DHT22;32223;53.654;10.014;2023-08-08T00:43:51;12.00;99.90
46508;DHT22;32223;53.654;10.014;2023-08-08T00:46:21;12.00;99.90
46508;DHT22;32223;53.654;10.014;2023-08-08T00:48:47;12.00;99.90
46508;DHT22;32223;53.654;10.014;2023-08-08T00:51:13;11.90;99.90
46508;DHT22;32223;53.654;10.014;2023-08-08T00:53:39;11.90;99.90
46508;DHT22;32223;53.654;10.014;2023-08-08T00:56:05;12.00;99.90
46508;DHT22;32223;53.654;10.014;2023-08-08T00:58:31;12.00;99.90
46508;DHT22;32223;53.654;10.014;2023-08-08T01:00:56;12.00;99.90
46508;DHT22;32223;53.654;10.014;2023-08-08T01:03:25;12.10;99.90
46508;DHT22;32223;53.654;10.014;2023-08-08T01:06:00;12.00;99.90
46508;DHT22;32223;53.654;10.014;2023-08-08T01:08:28;12.00;99.90
46508;DHT22;32223;53.654;10.014;2023-08-08T01:10:56;12.10;99.90
46508;DHT22;32223;53.654;10.014;2023-08-08T01:13:23;12.10;99.90
46508;DHT22;32223;53.654;10.014;2023-08-08T01:15:52;12.10;99.90
46508;DHT22;32223;53.654;10.014;2023-08-08T01:18:19;12.00;99.90
46508;DHT22;32223;53.654;10.014;2023-08-08T01:20:45;12.10;99.90
46508;DHT22;32223;53.654;10.014;2023-08-08T01:23:30;12.10;99.90
46508;DHT22;32223;53.654;10.014;2023-08-08T01:25:58;12.00;99.90
46508;DHT22;32223;53.654;10.014;2023-08-08T01:28:25;12.00;99.90
46508;DHT22;32223;53.654;10.014;2023-08-08T01:30:51;12.00;99.90
46508;DHT22;32223;53.654;10.014;2023-08-08T01:33:16;12.00;99.90
46508;DHT22;32223;53.654;10.014;2023-08-08T01:35:46;11.90;99.90
46508;DHT22;32223;53.654;10.014;2023-08-08T01:40:47;12.00;99.90
46508;DHT22;32223;53.654;10.014;2023-08-08T01:43:15;12.00;99.90
46508;DHT22;32223;53.654;10.014;2023-08-08T01:45:41;12.00;99.90
46508;DHT22;32223;53.654;10.014;2023-08-08T01:48:09;12.00;99.90
46508;DHT22;32223;53.654;10.014;2023-08-08T01:50:36;12.00;99.90
46508;DHT22;32223;53.654;10.014;2023-08-08T01:53:02;12.10;99.90
46508;DHT22;32223;53.654;10.014;2023-08-08T01:55:27;12.10;99.90
46508;DHT22;32223;53.654;10.014;2023-08-08T01:57:53;12.00;99.90
46508;DHT22;32223;53.654;10.014;2023-08-08T02:00:19;12.00;99.90
46508;DHT22;32223;53.654;10.014;2023-08-08T02:02:45;12.00;99.90
46508;DHT22;32223;53.654;10.014;2023-08-08T02:05:11;12.00;99.90
46508;DHT22;32223;53.654;10.014;2023-08-08T02:07:36;12.00;99.90
46508;DHT22;32223;53.654;10.014;2023-08-08T02:10:02;12.10;99.90
46508;DHT22;32223;53.654;10.014;2023-08-08T02:12:28;12.00;99.90
46508;DHT22;32223;53.654;10.014;2023-08-08T02:14:58;12.00;99.90
46508;DHT22;32223;53.654;10.014;2023-08-08T02:17:24;12.10;99.90
46508;DHT22;32223;53.654;10.014;2023-08-08T02:19:50;12.00;99.90
46508;DHT22;32223;53.654;10.014;2023-08-08T02:22:17;12.10;99.90
46508;DHT22;32223;53.654;10.014;2023-08-08T02:24:43;12.00;99.90
46508;DHT22;32223;53.654;10.014;2023-08-08T02:27:09;12.00;99.90
46508;DHT22;32223;53.654;10.014;2023-08-08T02:29:34;11.90;99.90
46508;DHT22;32223;53.654;10.014;2023-08-08T02:32:00;11.90;99.90
46508;DHT22;32223;53.654;10.014;2023-08-08T02:34:26;11.90;99.90
46508;DHT22;32223;53.654;10.014;2023-08-08T02:36:51;11.90;99.90
46508;DHT22;32223;53.654;10.014;2023-08-08T02:39:17;11.90;99.90
46508;DHT22;32223;53.654;10.014;2023-08-08T02:41:43;11.80;99.90
46508;DHT22;32223;53.654;10.014;2023-08-08T02:44:08;11.90;99.90
46508;DHT22;32223;53.654;10.014;2023-08-08T02:46:34;11.90;99.90
46508;DHT22;32223;53.654;10.014;2023-08-08T02:49:00;11.90;99.90
46508;DHT22;32223;53.654;10.014;2023-08-08T02:51:25;11.90;99.90
46508;DHT22;32223;53.654;10.014;2023-08-08T02:53:51;11.90;99.90
46508;DHT22;32223;53.654;10.014;2023-08-08T02:56:16;11.90;99.90
46508;DHT22;32223;53.654;10.014;2023-08-08T02:58:42;11.90;99.90
46508;DHT22;32223;53.654;10.014;2023-08-08T03:01:08;11.80;99.90
46508;DHT22;32223;53.654;10.014;2023-08-08T03:03:33;11.80;99.90
46508;DHT22;32223;53.654;10.014;2023-08-08T03:06:00;11.90;99.90
46508;DHT22;32223;53.654;10.014;2023-08-08T03:08:26;11.90;99.90
46508;DHT22;32223;53.654;10.014;2023-08-08T03:10:53;11.90;99.90
46508;DHT22;32223;53.654;10.014;2023-08-08T03:13:18;12.00;99.90
46508;DHT22;32223;53.654;10.014;2023-08-08T03:15:45;12.00;99.90
46508;DHT22;32223;53.654;10.014;2023-08-08T03:18:10;12.00;99.90
46508;DHT22;32223;53.654;10.014;2023-08-08T03:20:36;12.00;99.90
46508;DHT22;32223;53.654;10.014;2023-08-08T03:23:02;11.90;99.90
46508;DHT22;32223;53.654;10.014;2023-08-08T03:25:27;11.90;99.90
46508;DHT22;32223;53.654;10.014;2023-08-08T03:27:53;11.90;99.90
46508;DHT22;32223;53.654;10.014;2023-08-08T03:30:18;11.90;99.90
46508;DHT22;32223;53.654;10.014;2023-08-08T03:32:44;11.90;99.90
46508;DHT22;32223;53.654;10.014;2023-08-08T03:35:10;12.00;99.90
46508;DHT22;32223;53.654;10.014;2023-08-08T03:37:36;12.00;99.90
46508;DHT22;32223;53.654;10.014;2023-08-08T03:40:02;12.00;99.90
46508;DHT22;32223;53.654;10.014;2023-08-08T03:42:28;12.00;99.90
46508;DHT22;32223;53.654;10.014;2023-08-08T03:44:53;12.00;99.90
46508;DHT22;32223;53.654;10.014;2023-08-08T03:47:19;12.00;99.90
46508;DHT22;32223;53.654;10.014;2023-08-08T03:49:44;12.00;99.90
46508;DHT22;32223;53.654;10.014;2023-08-08T03:52:10;12.00;99.90
46508;DHT22;32223;53.654;10.014;2023-08-08T03:54:36;12.10;99.90
46508;DHT22;32223;53.654;10.014;2023-08-08T03:57:01;12.10;99.90
46508;DHT22;32223;53.654;10.014;2023-08-08T03:59:27;12.10;99.90
46508;DHT22;32223;53.654;10.014;2023-08-08T04:01:52;12.20;99.90
46508;DHT22;32223;53.654;10.014;2023-08-08T04:04:18;12.20;99.90
46508;DHT22;32223;53.654;10.014;2023-08-08T04:06:44;12.20;99.90
46508;DHT22;32223;53.654;10.014;2023-08-08T04:09:09;12.20;99.90
46508;DHT22;32223;53.654;10.014;2023-08-08T04:11:35;12.20;99.90
46508;DHT22;32223;53.654;10.014;2023-08-08T04:14:01;12.20;99.90
46508;DHT22;32223;53.654;10.014;2023-08-08T04:16:28;12.20;99.90
46508;DHT22;32223;53.654;10.014;2023-08-08T04:18:53;12.30;99.90
46508;DHT22;32223;53.654;10.014;2023-08-08T04:21:19;12.30;99.90
46508;DHT22;32223;53.654;10.014;2023-08-08T04:23:44;12.30;99.90
46508;DHT22;32223;53.654;10.014;2023-08-08T04:26:10;12.30;99.90
46508;DHT22;32223;53.654;10.014;2023-08-08T04:28:36;12.30;99.90
46508;DHT22;32223;53.654;10.014;2023-08-08T04:31:01;12.40;99.90
46508;DHT22;32223;53.654;10.014;2023-08-08T04:33:27;12.30;99.90
46508;DHT22;32223;53.654;10.014;2023-08-08T04:35:52;12.30;99.90
46508;DHT22;32223;53.654;10.014;2023-08-08T04:38:18;12.30;99.90
46508;DHT22;32223;53.654;10.014;2023-08-08T04:40:44;12.30;99.90
46508;DHT22;32223;53.654;10.014;2023-08-08T04:43:09;12.30;99.90
46508;DHT22;32223;53.654;10.014;2023-08-08T04:45:35;12.30;99.90
46508;DHT22;32223;53.654;10.014;2023-08-08T04:48:00;12.20;99.90
46508;DHT22;32223;53.654;10.014;2023-08-08T04:50:26;12.20;99.90
46508;DHT22;32223;53.654;10.014;2023-08-08T04:52:52;12.20;99.90
46508;DHT22;32223;53.654;10.014;2023-08-08T04:55:17;12.20;99.90
46508;DHT22;32223;53.654;10.014;2023-08-08T04:57:43;12.20;99.90
46508;DHT22;32223;53.654;10.014;2023-08-08T05:00:09;12.20;99.90
46508;DHT22;32223;53.654;10.014;2023-08-08T05:02:35;12.20;99.90
46508;DHT22;32223;53.654;10.014;2023-08-08T05:05:01;12.20;99.90
46508;DHT22;32223;53.654;10.014;2023-08-08T05:07:27;12.30;99.90
46508;DHT22;32223;53.654;10.014;2023-08-08T05:09:53;12.30;99.90
46508;DHT22;32223;53.654;10.014;2023-08-08T05:12:18;12.40;99.90
46508;DHT22;32223;53.654;10.014;2023-08-08T05:14:44;12.40;99.90
46508;DHT22;32223;53.654;10.014;2023-08-08T05:17:09;12.40;99.90
46508;DHT22;32223;53.654;10.014;2023-08-08T05:19:35;12.50;99.90
46508;DHT22;32223;53.654;10.014;2023-08-08T05:22:00;12.60;99.90
46508;DHT22;32223;53.654;10.014;2023-08-08T05:24:26;12.70;99.90
46508;DHT22;32223;53.654;10.014;2023-08-08T05:26:52;12.70;99.90
46508;DHT22;32223;53.654;10.014;2023-08-08T05:29:19;12.80;99.90
46508;DHT22;32223;53.654;10.014;2023-08-08T05:31:45;12.90;99.90
46508;DHT22;32223;53.654;10.014;2023-08-08T05:34:11;13.00;99.90
46508;DHT22;32223;53.654;10.014;2023-08-08T05:36:36;13.10;99.90
46508;DHT22;32223;53.654;10.014;2023-08-08T05:39:02;13.20;99.90
46508;DHT22;32223;53.654;10.014;2023-08-08T05:41:28;13.30;99.90
46508;DHT22;32223;53.654;10.014;2023-08-08T05:43:54;13.40;99.90
46508;DHT22;32223;53.654;10.014;2023-08-08T05:46:19;13.50;99.90
46508;DHT22;32223;53.654;10.014;2023-08-08T05:48:45;13.50;99.90
46508;DHT22;32223;53.654;10.014;2023-08-08T05:51:12;13.50;99.90
46508;DHT22;32223;53.654;10.014;2023-08-08T05:53:37;13.50;99.90
46508;DHT22;32223;53.654;10.014;2023-08-08T05:56:04;13.50;99.90
46508;DHT22;32223;53.654;10.014;2023-08-08T05:58:29;13.50;99.90
46508;DHT22;32223;53.654;10.014;2023-08-08T06:00:55;13.60;99.90
46508;DHT22;32223;53.654;10.014;2023-08-08T06:03:20;13.70;99.90
46508;DHT22;32223;53.654;10.014;2023-08-08T06:05:46;13.80;99.90
46508;DHT22;32223;53.654;10.014;2023-08-08T06:08:12;13.90;99.90
46508;DHT22;32223;53.654;10.014;2023-08-08T06:10:38;14.00;99.90
46508;DHT22;32223;53.654;10.014;2023-08-08T06:13:04;14.10;99.90
46508;DHT22;32223;53.654;10.014;2023-08-08T06:15:30;14.20;99.90
46508;DHT22;32223;53.654;10.014;2023-08-08T06:17:56;14.20;99.90
46508;DHT22;32223;53.654;10.014;2023-08-08T06:20:21;14.20;99.90
46508;DHT22;32223;53.654;10.014;2023-08-08T06:22:48;14.30;99.90
46508;DHT22;32223;53.654;10.014;2023-08-08T06:25:14;14.30;99.90
46508;DHT22;32223;53.654;10.014;2023-08-08T06:27:39;14.20;99.90
46508;DHT22;32223;53.654;10.014;2023-08-08T06:30:06;14.30;99.90
46508;DHT22;32223;53.654;10.014;2023-08-08T06:32:31;14.40;99.90
46508;DHT22;32223;53.654;10.014;2023-08-08T06:34:57;14.50;99.90
46508;DHT22;32223;53.654;10.014;2023-08-08T06:37:23;14.50;99.90
46508;DHT22;32223;53.654;10.014;2023-08-08T06:39:48;14.60;99.90
46508;DHT22;32223;53.654;10.014;2023-08-08T06:42:14;14.60;99.90
46508;DHT22;32223;53.654;10.014;2023-08-08T06:44:43;14.60;99.90
46508;DHT22;32223;53.654;10.014;2023-08-08T06:47:09;14.70;99.90
46508;DHT22;32223;53.654;10.014;2023-08-08T06:49:35;14.80;99.90
46508;DHT22;32223;53.654;10.014;2023-08-08T06:52:00;14.80;99.90
46508;DHT22;32223;53.654;10.014;2023-08-08T06:54:26;14.90;99.90
46508;DHT22;32223;53.654;10.014;2023-08-08T06:56:53;15.00;99.90
46508;DHT22;32223;53.654;10.014;2023-08-08T06:59:19;15.10;99.90
46508;DHT22;32223;53.654;10.014;2023-08-08T07:01:45;15.20;99.90
46508;DHT22;32223;53.654;10.014;2023-08-08T07:04:10;15.20;99.90
46508;DHT22;32223;53.654;10.014;2023-08-08T07:06:36;15.10;99.90
46508;DHT22;32223;53.654;10.014;2023-08-08T07:09:02;15.20;99.90
46508;DHT22;32223;53.654;10.014;2023-08-08T07:11:27;15.30;99.90
46508;DHT22;32223;53.654;10.014;2023-08-08T07:13:53;15.40;99.90
46508;DHT22;32223;53.654;10.014;2023-08-08T07:16:19;15.70;99.90
46508;DHT22;32223;53.654;10.014;2023-08-08T07:18:44;15.90;99.90
46508;DHT22;32223;53.654;10.014;2023-08-08T07:21:10;15.90;99.90
46508;DHT22;32223;53.654;10.014;2023-08-08T07:23:36;15.70;99.90
46508;DHT22;32223;53.654;10.014;2023-08-08T07:26:01;15.60;99.90
46508;DHT22;32223;53.654;10.014;2023-08-08T07:28:27;15.70;99.90
46508;DHT22;32223;53.654;10.014;2023-08-08T07:30:52;15.70;99.90
46508;DHT22;32223;53.654;10.014;2023-08-08T07:33:18;15.80;99.90
46508;DHT22;32223;53.654;10.014;2023-08-08T07:35:43;15.80;99.90
46508;DHT22;32223;53.654;10.014;2023-08-08T07:38:09;15.90;99.90
46508;DHT22;32223;53.654;10.014;2023-08-08T07:40:35;16.00;99.90
46508;DHT22;32223;53.654;10.014;2023-08-08T07:43:01;16.10;99.90
46508;DHT22;32223;53.654;10.014;2023-08-08T07:45:27;16.30;99.90
46508;DHT22;32223;53.654;10.014;2023-08-08T07:47:53;16.40;99.90
46508;DHT22;32223;53.654;10.014;2023-08-08T07:50:18;16.30;99.90
46508;DHT22;32223;53.654;10.014;2023-08-08T07:52:44;16.40;99.90
46508;DHT22;32223;53.654;10.014;2023-08-08T07:55:09;16.40;99.90
46508;DHT22;32223;53.654;10.014;2023-08-08T07:57:35;16.50;99.90
46508;DHT22;32223;53.654;10.014;2023-08-08T08:00:02;16.60;99.90
46508;DHT22;32223;53.654;10.014;2023-08-08T08:02:33;16.70;99.90
46508;DHT22;32223;53.654;10.014;2023-08-08T08:04:59;16.70;99.90
46508;DHT22;32223;53.654;10.014;2023-08-08T08:07:24;16.70;99.90
46508;DHT22;32223;53.654;10.014;2023-08-08T08:09:50;16.70;99.90
46508;DHT22;32223;53.654;10.014;2023-08-08T08:12:16;16.70;99.90
46508;DHT22;32223;53.654;10.014;2023-08-08T08:14:41;16.70;99.90
46508;DHT22;32223;53.654;10.014;2023-08-08T08:17:07;16.70;99.90
46508;DHT22;32223;53.654;10.014;2023-08-08T08:19:34;16.50;99.90
46508;DHT22;32223;53.654;10.014;2023-08-08T08:21:59;16.20;99.90
46508;DHT22;32223;53.654;10.014;2023-08-08T08:24:25;16.00;99.90
46508;DHT22;32223;53.654;10.014;2023-08-08T08:26:50;15.80;99.90
46508;DHT22;32223;53.654;10.014;2023-08-08T08:29:16;15.70;99.90
46508;DHT22;32223;53.654;10.014;2023-08-08T08:31:42;15.70;99.90
46508;DHT22;32223;53.654;10.014;2023-08-08T08:34:07;15.70;99.90
46508;DHT22;32223;53.654;10.014;2023-08-08T08:36:33;15.60;99.90
46508;DHT22;32223;53.654;10.014;2023-08-08T08:38:58;15.50;99.90
46508;DHT22;32223;53.654;10.014;2023-08-08T08:41:27;15.50;99.90
46508;DHT22;32223;53.654;10.014;2023-08-08T08:43:54;15.40;99.90
46508;DHT22;32223;53.654;10.014;2023-08-08T08:46:21;15.40;99.90
46508;DHT22;32223;53.654;10.014;2023-08-08T08:48:49;15.30;99.90
46508;DHT22;32223;53.654;10.014;2023-08-08T08:51:15;15.20;99.90
46508;DHT22;32223;53.654;10.014;2023-08-08T08:53:42;15.10;99.90
46508;DHT22;32223;53.654;10.014;2023-08-08T08:56:13;15.00;99.90
46508;DHT22;32223;53.654;10.014;2023-08-08T08:58:39;14.90;99.90
46508;DHT22;32223;53.654;10.014;2023-08-08T09:01:05;14.80;99.90
46508;DHT22;32223;53.654;10.014;2023-08-08T09:03:31;14.80;99.90
46508;DHT22;32223;53.654;10.014;2023-08-08T09:05:57;14.70;99.90
46508;DHT22;32223;53.654;10.014;2023-08-08T09:08:24;14.70;99.90
46508;DHT22;32223;53.654;10.014;2023-08-08T09:10:50;14.70;99.90
46508;DHT22;32223;53.654;10.014;2023-08-08T09:13:16;14.80;99.90
46508;DHT22;32223;53.654;10.014;2023-08-08T09:15:42;14.80;99.90
46508;DHT22;32223;53.654;10.014;2023-08-08T09:18:08;14.90;99.90
46508;DHT22;32223;53.654;10.014;2023-08-08T09:20:34;15.00;99.90
46508;DHT22;32223;53.654;10.014;2023-08-08T09:23:00;15.20;99.90
46508;DHT22;32223;53.654;10.014;2023-08-08T09:25:26;15.20;99.90
46508;DHT22;32223;53.654;10.014;2023-08-08T09:27:52;15.40;99.90
46508;DHT22;32223;53.654;10.014;2023-08-08T09:30:21;15.60;99.90
46508;DHT22;32223;53.654;10.014;2023-08-08T09:32:47;15.90;99.90
46508;DHT22;32223;53.654;10.014;2023-08-08T09:35:13;16.10;99.90
46508;DHT22;32223;53.654;10.014;2023-08-08T09:37:38;16.10;99.90
46508;DHT22;32223;53.654;10.014;2023-08-08T09:40:05;16.10;99.90
46508;DHT22;32223;53.654;10.014;2023-08-08T09:42:33;16.20;99.90
46508;DHT22;32223;53.654;10.014;2023-08-08T09:45:00;16.10;99.90
46508;DHT22;32223;53.654;10.014;2023-08-08T09:47:26;16.00;99.90
46508;DHT22;32223;53.654;10.014;2023-08-08T09:50:00;15.90;99.90
46508;DHT22;32223;53.654;10.014;2023-08-08T09:52:27;15.70;99.90
46508;DHT22;32223;53.654;10.014;2023-08-08T09:54:53;15.60;99.90
46508;DHT22;32223;53.654;10.014;2023-08-08T09:57:19;15.40;99.90
46508;DHT22;32223;53.654;10.014;2023-08-08T09:59:45;15.30;99.90
46508;DHT22;32223;53.654;10.014;2023-08-08T10:02:14;15.10;99.90
46508;DHT22;32223;53.654;10.014;2023-08-08T10:04:45;14.90;99.90
46508;DHT22;32223;53.654;10.014;2023-08-08T10:07:11;14.90;99.90
46508;DHT22;32223;53.654;10.014;2023-08-08T10:09:37;14.90;99.90
46508;DHT22;32223;53.654;10.014;2023-08-08T10:12:06;14.90;99.90
46508;DHT22;32223;53.654;10.014;2023-08-08T10:14:35;15.00;99.90
46508;DHT22;32223;53.654;10.014;2023-08-08T10:17:05;15.10;99.90
46508;DHT22;32223;53.654;10.014;2023-08-08T10:19:32;15.20;99.90
46508;DHT22;32223;53.654;10.014;2023-08-08T10:22:04;15.20;99.90
46508;DHT22;32223;53.654;10.014;2023-08-08T10:24:34;15.30;99.90
46508;DHT22;32223;53.654;10.014;2023-08-08T10:27:04;15.20;99.90
46508;DHT22;32223;53.654;10.014;2023-08-08T10:29:32;15.20;99.90
46508;DHT22;32223;53.654;10.014;2023-08-08T10:32:02;15.30;99.90
46508;DHT22;32223;53.654;10.014;2023-08-08T10:37:14;15.40;99.90
46508;DHT22;32223;53.654;10.014;2023-08-08T10:40:00;15.60;99.90
46508;DHT22;32223;53.654;10.014;2023-08-08T10:42:31;16.10;99.90
46508;DHT22;32223;53.654;10.014;2023-08-08T10:44:59;16.40;99.90
46508;DHT22;32223;53.654;10.014;2023-08-08T10:47:29;16.50;99.90
46508;DHT22;32223;53.654;10.014;2023-08-08T10:49:59;16.40;99.90
46508;DHT22;32223;53.654;10.014;2023-08-08T10:52:29;16.10;99.90
46508;DHT22;32223;53.654;10.014;2023-08-08T10:54:54;15.90;99.90
46508;DHT22;32223;53.654;10.014;2023-08-08T10:57:24;15.70;99.90
46508;DHT22;32223;53.654;10.014;2023-08-08T10:59:50;15.30;99.90
46508;DHT22;32223;53.654;10.014;2023-08-08T11:02:16;15.10;99.90
46508;DHT22;32223;53.654;10.014;2023-08-08T11:04:41;14.90;99.90
46508;DHT22;32223;53.654;10.014;2023-08-08T11:07:07;14.80;99.90
46508;DHT22;32223;53.654;10.014;2023-08-08T11:09:34;15.00;99.90
46508;DHT22;32223;53.654;10.014;2023-08-08T11:12:00;15.10;99.90
46508;DHT22;32223;53.654;10.014;2023-08-08T11:14:25;15.40;99.90
46508;DHT22;32223;53.654;10.014;2023-08-08T11:16:52;15.50;99.90
46508;DHT22;32223;53.654;10.014;2023-08-08T11:19:18;15.60;99.90
46508;DHT22;32223;53.654;10.014;2023-08-08T11:21:49;15.80;99.90
46508;DHT22;32223;53.654;10.014;2023-08-08T11:24:15;15.90;99.90
46508;DHT22;32223;53.654;10.014;2023-08-08T11:26:42;16.00;99.90
46508;DHT22;32223;53.654;10.014;2023-08-08T11:29:10;16.10;99.90
46508;DHT22;32223;53.654;10.014;2023-08-08T11:31:37;15.90;99.90
46508;DHT22;32223;53.654;10.014;2023-08-08T11:34:04;15.90;99.90
46508;DHT22;32223;53.654;10.014;2023-08-08T11:36:34;16.00;99.90
46508;DHT22;32223;53.654;10.014;2023-08-08T11:39:02;16.20;99.90
46508;DHT22;32223;53.654;10.014;2023-08-08T11:41:34;16.50;99.90
46508;DHT22;32223;53.654;10.014;2023-08-08T11:44:01;16.60;99.90
46508;DHT22;32223;53.654;10.014;2023-08-08T11:46:27;16.70;99.90
46508;DHT22;32223;53.654;10.014;2023-08-08T11:48:53;16.50;99.90
46508;DHT22;32223;53.654;10.014;2023-08-08T11:51:18;16.20;99.90
46508;DHT22;32223;53.654;10.014;2023-08-08T11:53:53;16.00;99.90
46508;DHT22;32223;53.654;10.014;2023-08-08T11:56:20;16.30;99.90
46508;DHT22;32223;53.654;10.014;2023-08-08T11:58:50;16.50;99.90
46508;DHT22;32223;53.654;10.014;2023-08-08T12:01:20;16.80;99.90
46508;DHT22;32223;53.654;10.014;2023-08-08T12:03:46;17.10;99.90
46508;DHT22;32223;53.654;10.014;2023-08-08T12:06:15;17.50;99.90
46508;DHT22;32223;53.654;10.014;2023-08-08T12:08:46;17.70;99.90
46508;DHT22;32223;53.654;10.014;2023-08-08T12:11:13;17.60;99.90
46508;DHT22;32223;53.654;10.014;2023-08-08T12:13:42;17.40;99.90
46508;DHT22;32223;53.654;10.014;2023-08-08T12:16:09;17.20;99.90
46508;DHT22;32223;53.654;10.014;2023-08-08T12:18:36;16.70;99.90
46508;DHT22;32223;53.654;10.014;2023-08-08T12:21:06;16.40;99.90
46508;DHT22;32223;53.654;10.014;2023-08-08T12:23:32;16.60;99.90
46508;DHT22;32223;53.654;10.014;2023-08-08T12:25:59;16.70;99.90
46508;DHT22;32223;53.654;10.014;2023-08-08T12:28:25;17.10;99.90
46508;DHT22;32223;53.654;10.014;2023-08-08T12:30:51;17.40;99.90
46508;DHT22;32223;53.654;10.014;2023-08-08T12:33:16;18.00;99.90
46508;DHT22;32223;53.654;10.014;2023-08-08T12:35:42;18.30;99.90
46508;DHT22;32223;53.654;10.014;2023-08-08T12:38:08;18.40;99.90
46508;DHT22;32223;53.654;10.014;2023-08-08T12:40:33;18.70;99.90
46508;DHT22;32223;53.654;10.014;2023-08-08T12:42:59;19.00;99.90
46508;DHT22;32223;53.654;10.014;2023-08-08T12:45:25;19.30;99.90
46508;DHT22;32223;53.654;10.014;2023-08-08T12:47:50;19.70;99.90
46508;DHT22;32223;53.654;10.014;2023-08-08T12:50:16;20.00;99.90
46508;DHT22;32223;53.654;10.014;2023-08-08T12:52:42;19.90;99.90
46508;DHT22;32223;53.654;10.014;2023-08-08T12:55:08;20.10;99.90
46508;DHT22;32223;53.654;10.014;2023-08-08T12:57:34;19.80;99.90
46508;DHT22;32223;53.654;10.014;2023-08-08T13:00:00;19.40;99.90
46508;DHT22;32223;53.654;10.014;2023-08-08T13:02:26;19.00;99.90
46508;DHT22;32223;53.654;10.014;2023-08-08T13:04:51;18.80;99.90
46508;DHT22;32223;53.654;10.014;2023-08-08T13:07:17;18.40;99.90
46508;DHT22;32223;53.654;10.014;2023-08-08T13:09:43;17.80;99.90
46508;DHT22;32223;53.654;10.014;2023-08-08T13:12:08;17.50;99.90
46508;DHT22;32223;53.654;10.014;2023-08-08T13:14:34;17.10;99.90
46508;DHT22;32223;53.654;10.014;2023-08-08T13:16:59;17.00;99.90
46508;DHT22;32223;53.654;10.014;2023-08-08T13:19:25;17.20;99.90
46508;DHT22;32223;53.654;10.014;2023-08-08T13:21:55;18.30;99.90
46508;DHT22;32223;53.654;10.014;2023-08-08T13:24:21;19.20;99.90
46508;DHT22;32223;53.654;10.014;2023-08-08T13:26:49;19.30;99.90
46508;DHT22;32223;53.654;10.014;2023-08-08T13:29:15;18.90;99.90
46508;DHT22;32223;53.654;10.014;2023-08-08T13:31:41;18.50;99.90
46508;DHT22;32223;53.654;10.014;2023-08-08T13:34:06;18.20;99.90
46508;DHT22;32223;53.654;10.014;2023-08-08T13:36:32;18.20;99.90
46508;DHT22;32223;53.654;10.014;2023-08-08T13:38:57;18.80;99.90
46508;DHT22;32223;53.654;10.014;2023-08-08T13:41:23;20.00;99.90
46508;DHT22;32223;53.654;10.014;2023-08-08T13:43:49;21.10;99.90
46508;DHT22;32223;53.654;10.014;2023-08-08T13:46:15;21.10;99.90
46508;DHT22;32223;53.654;10.014;2023-08-08T13:48:40;20.40;99.90
46508;DHT22;32223;53.654;10.014;2023-08-08T13:51:06;19.20;99.90
46508;DHT22;32223;53.654;10.014;2023-08-08T13:53:32;18.30;99.90
46508;DHT22;32223;53.654;10.014;2023-08-08T13:55:57;17.70;99.90
46508;DHT22;32223;53.654;10.014;2023-08-08T13:58:23;17.30;99.90
46508;DHT22;32223;53.654;10.014;2023-08-08T14:00:49;17.00;99.90
46508;DHT22;32223;53.654;10.014;2023-08-08T14:03:15;16.80;99.90
46508;DHT22;32223;53.654;10.014;2023-08-08T14:05:40;16.90;99.90
46508;DHT22;32223;53.654;10.014;2023-08-08T14:08:06;16.80;99.90
46508;DHT22;32223;53.654;10.014;2023-08-08T14:10:32;16.90;99.90
46508;DHT22;32223;53.654;10.014;2023-08-08T14:12:59;17.00;99.90
46508;DHT22;32223;53.654;10.014;2023-08-08T14:15:24;17.10;99.90
46508;DHT22;32223;53.654;10.014;2023-08-08T14:17:50;17.10;99.90
46508;DHT22;32223;53.654;10.014;2023-08-08T14:20:16;17.10;99.90
46508;DHT22;32223;53.654;10.014;2023-08-08T14:22:45;17.30;99.90
46508;DHT22;32223;53.654;10.014;2023-08-08T14:25:12;17.60;99.90
46508;DHT22;32223;53.654;10.014;2023-08-08T14:27:38;17.60;99.90
46508;DHT22;32223;53.654;10.014;2023-08-08T14:30:04;17.70;99.90
46508;DHT22;32223;53.654;10.014;2023-08-08T14:32:30;18.10;99.90
46508;DHT22;32223;53.654;10.014;2023-08-08T14:34:55;18.20;99.90
46508;DHT22;32223;53.654;10.014;2023-08-08T14:37:21;18.80;99.90
46508;DHT22;32223;53.654;10.014;2023-08-08T14:39:47;18.80;99.90
46508;DHT22;32223;53.654;10.014;2023-08-08T14:42:13;19.40;99.90
46508;DHT22;32223;53.654;10.014;2023-08-08T14:44:38;20.00;99.90
46508;DHT22;32223;53.654;10.014;2023-08-08T14:47:04;20.10;99.90
46508;DHT22;32223;53.654;10.014;2023-08-08T14:49:30;20.90;99.90
46508;DHT22;32223;53.654;10.014;2023-08-08T14:51:56;21.40;99.90
46508;DHT22;32223;53.654;10.014;2023-08-08T14:54:22;22.60;99.90
46508;DHT22;32223;53.654;10.014;2023-08-08T14:56:48;23.50;99.90
46508;DHT22;32223;53.654;10.014;2023-08-08T14:59:13;24.10;99.90
46508;DHT22;32223;53.654;10.014;2023-08-08T15:01:39;23.50;99.90
46508;DHT22;32223;53.654;10.014;2023-08-08T15:04:05;22.80;99.90
46508;DHT22;32223;53.654;10.014;2023-08-08T15:06:31;21.80;99.90
46508;DHT22;32223;53.654;10.014;2023-08-08T15:08:57;21.00;99.90
46508;DHT22;32223;53.654;10.014;2023-08-08T15:11:23;20.00;99.90
46508;DHT22;32223;53.654;10.014;2023-08-08T15:13:48;19.10;99.90